Time;durP1;ratioP1;P1;durP2;ratioP2;P2;SDS_P1;SDS_P2;PMS_P1;PMS_P2;Temp;Humidity;BMP_temperature;BMP_pressure;BME280_temperature;BME280_humidity;BME280_pressure;Samples;Min_cycle;Max_cycle;Signal;HPM_P1;HPM_P2
2023/01/17 00:02:48;;;;;;;0.80;0.70;;;;;1.40;98102.00;;;;10378756;28;20199;-79
2023/01/17 00:13:10;;;;;;;3.97;1.80;;;;;1.30;98116.00;;;;10393743;28;20234;-79
2023/01/17 00:18:12;;;;;;;7.37;2.03;;;;;1.20;98111.00;;;;10459795;28;20217;-79
2023/01/17 00:26:01;;;;;;;3.03;2.10;;;;;1.20;98112.00;;;;10398515;28;20393;-79
2023/01/17 01:37:34;;;;;;;1.10;0.93;;;;;0.30;98171.00;;;;10418328;28;20194;-79
2023/01/17 01:42:36;;;;;;;8.00;1.47;;;;;0.30;98172.00;;;;10451963;28;20214;-79
2023/01/17 01:47:39;;;;;;;1.83;1.20;;;;;0.30;98177.00;;;;10401473;28;20755;-79
2023/01/17 01:52:45;;;;;;;4.63;1.93;;;;;0.30;98183.00;;;;10418303;28;20210;-79
2023/01/17 01:57:50;;;;;;;6.30;2.37;;;;;0.20;98199.00;;;;10401443;28;20194;-80
2023/01/17 02:02:56;;;;;;;5.07;2.30;;;;;0.20;98210.00;;;;10401337;28;20179;-78
2023/01/17 02:08:07;;;;;;;3.83;2.13;;;;;0.10;98204.00;;;;10416608;28;20198;-78
2023/01/17 02:13:11;;;;;;;4.60;2.67;;;;;0.10;98208.00;;;;10433169;28;20210;-78
2023/01/17 02:18:22;;;;;;;5.00;2.70;;;;;0.10;98219.00;;;;10414985;28;20199;-78
2023/01/17 02:23:42;;;;;;;6.87;2.97;;;;;0.10;98223.00;;;;10414687;28;20194;-78
2023/01/17 02:29:15;;;;;;;7.10;3.67;;;;;0.00;98218.00;;;;10391197;28;20281;-78
2023/01/17 02:34:46;;;;;;;7.50;3.77;;;;;0.00;98227.00;;;;10386338;28;20202;-78
2023/01/17 02:39:54;;;;;;;6.23;3.37;;;;;0.00;98225.00;;;;10400790;28;20501;-79
2023/01/17 02:44:56;;;;;;;6.57;3.93;;;;;0.10;98222.00;;;;10406464;28;20565;-78
2023/01/17 02:50:11;;;;;;;7.53;4.27;;;;;0.10;98226.00;;;;10422789;28;20186;-79
2023/01/17 02:55:31;;;;;;;9.03;4.20;;;;;0.10;98233.00;;;;10415503;28;20238;-78
2023/01/17 03:00:49;;;;;;;6.37;4.73;;;;;0.10;98231.00;;;;10382099;28;20737;-78
2023/01/17 03:05:58;;;;;;;11.10;4.70;;;;;0.10;98231.00;;;;10381634;28;20222;-79
2023/01/17 03:11:00;;;;;;;11.03;5.20;;;;;0.10;98236.00;;;;10397569;28;20226;-78
2023/01/17 03:16:06;;;;;;;10.87;5.03;;;;;0.10;98240.00;;;;10444431;28;20277;-78
2023/01/17 03:21:09;;;;;;;16.53;5.53;;;;;0.00;98239.00;;;;10463286;28;20202;-79
2023/01/17 03:26:11;;;;;;;9.07;4.83;;;;;-0.10;98228.00;;;;10399332;28;20218;-78
2023/01/17 03:31:14;;;;;;;8.63;4.60;;;;;-0.10;98220.00;;;;10365896;28;20191;-78
2023/01/17 03:36:17;;;;;;;12.77;5.07;;;;;-0.20;98218.00;;;;10405532;28;20218;-77
2023/01/17 03:41:19;;;;;;;8.97;4.43;;;;;-0.30;98224.00;;;;10373449;28;20561;-78
2023/01/17 03:46:23;;;;;;;8.10;4.87;;;;;-0.30;98211.00;;;;10418156;28;20222;-78
2023/01/17 03:51:26;;;;;;;9.37;4.93;;;;;-0.30;98208.00;;;;10396636;28;20195;-78
2023/01/17 03:56:28;;;;;;;10.20;4.73;;;;;-0.40;98204.00;;;;10380830;28;20659;-78
2023/01/17 04:01:30;;;;;;;9.63;4.53;;;;;-0.40;98207.00;;;;10395815;28;20240;-78
2023/01/17 04:06:32;;;;;;;8.70;5.00;;;;;-0.40;98204.00;;;;10400924;28;20206;-78
2023/01/17 04:11:34;;;;;;;14.40;4.90;;;;;-0.50;98206.00;;;;10380401;28;20211;-78
2023/01/17 04:16:37;;;;;;;8.47;4.23;;;;;-0.50;98215.00;;;;10424975;28;20209;-78
2023/01/17 04:21:39;;;;;;;9.87;4.50;;;;;-0.40;98217.00;;;;10438823;28;20266;-78
2023/01/17 04:26:41;;;;;;;11.03;5.60;;;;;-0.40;98212.00;;;;10420140;28;20210;-78
2023/01/17 04:31:43;;;;;;;8.73;5.10;;;;;-0.40;98217.00;;;;10420679;28;20281;-79
2023/01/17 04:36:45;;;;;;;14.67;5.73;;;;;-0.40;98215.00;;;;10402770;28;20198;-78
2023/01/17 04:41:47;;;;;;;15.27;5.43;;;;;-0.40;98215.00;;;;10419538;28;20243;-79
2023/01/17 04:46:49;;;;;;;15.67;5.80;;;;;-0.40;98218.00;;;;10417777;28;20202;-79
2023/01/17 04:51:51;;;;;;;14.80;5.87;;;;;-0.50;98215.00;;;;10435227;28;20256;-78
2023/01/17 04:56:53;;;;;;;15.47;5.27;;;;;-0.50;98220.00;;;;10417871;28;20206;-79
2023/01/17 05:01:55;;;;;;;14.90;6.07;;;;;-0.50;98218.00;;;;10419509;28;20194;-78
2023/01/17 05:06:57;;;;;;;9.97;4.70;;;;;-0.50;98204.00;;;;10424102;28;20652;-79
2023/01/17 05:11:59;;;;;;;9.67;5.87;;;;;-0.40;98204.00;;;;10377954;28;20215;-78
2023/01/17 05:17:04;;;;;;;14.30;5.47;;;;;-0.40;98202.00;;;;10411068;28;20304;-78
2023/01/17 05:22:13;;;;;;;13.83;5.97;;;;;-0.40;98209.00;;;;10418982;28;20914;-78
2023/01/17 05:27:15;;;;;;;12.97;6.43;;;;;-0.40;98206.00;;;;10378794;28;20274;-78
2023/01/17 05:32:17;;;;;;;12.10;5.93;;;;;-0.40;98201.00;;;;10394512;28;20657;-78
2023/01/17 05:37:19;;;;;;;12.03;5.30;;;;;-0.40;98207.00;;;;10395240;28;20219;-78
2023/01/17 05:42:21;;;;;;;7.00;4.43;;;;;-0.50;98200.00;;;;10394121;28;20556;-78
2023/01/17 05:47:23;;;;;;;9.80;4.93;;;;;-0.50;98204.00;;;;10412345;28;20183;-78
2023/01/17 05:52:25;;;;;;;10.90;4.67;;;;;-0.60;98195.00;;;;10409491;28;20191;-78
2023/01/17 05:57:27;;;;;;;15.57;5.50;;;;;-0.60;98197.00;;;;10377900;28;20729;-78
2023/01/17 06:02:29;;;;;;;10.90;5.00;;;;;-0.70;98192.00;;;;10378317;28;20660;-78
2023/01/17 06:07:31;;;;;;;9.97;5.43;;;;;-0.70;98176.00;;;;10372896;28;20186;-78
2023/01/17 06:12:33;;;;;;;12.50;6.27;;;;;-0.70;98166.00;;;;10406964;28;20218;-78
2023/01/17 06:17:35;;;;;;;9.87;5.27;;;;;-0.80;98164.00;;;;10370402;28;20225;-79
2023/01/17 06:22:38;;;;;;;8.47;5.43;;;;;-0.90;98166.00;;;;10425039;28;20648;-79
2023/01/17 06:27:40;;;;;;;12.63;5.33;;;;;-0.90;98167.00;;;;10406104;28;20190;-79
2023/01/17 06:32:42;;;;;;;13.73;6.53;;;;;-1.00;98161.00;;;;10406940;28;20565;-78
2023/01/17 06:37:44;;;;;;;9.73;5.00;;;;;-1.00;98161.00;;;;10422744;28;20198;-79
2023/01/17 06:42:46;;;;;;;15.50;5.20;;;;;-1.10;98159.00;;;;10423744;28;20210;-79
2023/01/17 06:47:48;;;;;;;13.40;5.07;;;;;-1.10;98160.00;;;;10407304;28;20195;-79
2023/01/17 06:52:55;;;;;;;11.83;5.80;;;;;-1.10;98159.00;;;;10383428;28;20180;-78
2023/01/17 06:57:58;;;;;;;9.43;6.03;;;;;-1.10;98164.00;;;;10400854;28;20200;-79
2023/01/17 07:03:00;;;;;;;12.13;4.63;;;;;-1.20;98174.00;;;;10423236;28;20272;-79
2023/01/17 07:08:03;;;;;;;7.77;4.70;;;;;-1.20;98181.00;;;;10464932;28;20784;-79
2023/01/17 07:13:04;;;;;;;12.97;5.37;;;;;-1.20;98176.00;;;;10466107;28;20224;-78
2023/01/17 07:18:07;;;;;;;12.73;5.40;;;;;-1.20;98180.00;;;;10442683;28;20197;-79
2023/01/17 07:23:08;;;;;;;12.77;5.27;;;;;-1.20;98189.00;;;;10398966;28;20635;-78
2023/01/17 07:28:10;;;;;;;14.63;5.53;;;;;-1.20;98185.00;;;;10382381;28;20211;-79
2023/01/17 07:33:12;;;;;;;13.17;6.10;;;;;-1.20;98185.00;;;;10420863;28;20218;-79
2023/01/17 07:38:16;;;;;;;12.27;5.57;;;;;-1.20;98190.00;;;;10425250;28;20198;-78
2023/01/17 07:43:18;;;;;;;15.43;5.77;;;;;-1.20;98192.00;;;;10385459;28;20674;-78
2023/01/17 07:48:23;;;;;;;11.60;5.33;;;;;-1.10;98185.00;;;;10449417;28;20197;-79
2023/01/17 07:53:28;;;;;;;11.17;6.17;;;;;-1.10;98190.00;;;;10445361;28;20205;-79
2023/01/17 07:58:31;;;;;;;11.23;5.93;;;;;-1.20;98188.00;;;;10395133;28;20265;-78
2023/01/17 08:03:38;;;;;;;10.93;6.17;;;;;-1.20;98192.00;;;;10415637;28;20195;-79
2023/01/17 08:08:40;;;;;;;9.93;6.17;;;;;-1.10;98192.00;;;;10383433;28;20213;-79
2023/01/17 08:13:43;;;;;;;13.30;5.67;;;;;-1.10;98193.00;;;;10386972;28;20241;-78
2023/01/17 08:18:45;;;;;;;14.73;7.00;;;;;-1.00;98193.00;;;;10422218;28;20182;-78
2023/01/17 08:23:48;;;;;;;14.13;6.57;;;;;-0.90;98199.00;;;;10423403;28;20213;-77
2023/01/17 08:28:56;;;;;;;12.43;6.50;;;;;-0.80;98197.00;;;;10422648;28;20198;-78
2023/01/17 08:33:58;;;;;;;20.03;6.83;;;;;-0.60;98213.00;;;;10407348;28;20210;-78
2023/01/17 08:39:00;;;;;;;15.97;6.77;;;;;-0.50;98206.00;;;;10381907;28;20198;-78
2023/01/17 08:44:02;;;;;;;14.20;6.30;;;;;-0.60;98200.00;;;;10404890;28;20206;-78
2023/01/17 08:49:04;;;;;;;9.07;5.53;;;;;-0.40;98207.00;;;;10405446;28;20229;-80
2023/01/17 08:54:08;;;;;;;10.90;6.20;;;;;-0.10;98210.00;;;;10420923;28;20248;-80
2023/01/17 08:59:11;;;;;;;14.43;6.40;;;;;0.10;98213.00;;;;10404408;28;20197;-80
2023/01/17 09:04:13;;;;;;;17.27;6.20;;;;;0.30;98227.00;;;;10419877;28;20186;-81
2023/01/17 09:09:16;;;;;;;16.33;7.20;;;;;0.60;98218.00;;;;10420812;28;20213;-80
2023/01/17 09:14:18;;;;;;;14.60;6.13;;;;;0.90;98235.00;;;;10413880;28;20210;-80
2023/01/17 09:19:20;;;;;;;23.60;8.30;;;;;1.20;98244.00;;;;10403808;28;20179;-81
2023/01/17 09:24:22;;;;;;;13.57;7.10;;;;;1.30;98248.00;;;;10403389;28;20198;-81
2023/01/17 09:29:24;;;;;;;11.77;5.97;;;;;1.50;98259.00;;;;10420003;28;20281;-81
2023/01/17 09:34:26;;;;;;;15.87;6.53;;;;;1.60;98269.00;;;;10403811;28;20209;-81
2023/01/17 09:39:28;;;;;;;14.33;5.67;;;;;1.30;98275.00;;;;10403543;28;20186;-80
2023/01/17 09:44:46;;;;;;;14.53;6.70;;;;;1.80;98289.00;;;;10434867;28;20781;-80
2023/01/17 09:49:48;;;;;;;12.33;6.17;;;;;1.90;98286.00;;;;10417773;28;20221;-80
2023/01/17 09:54:50;;;;;;;17.13;6.93;;;;;2.40;98297.00;;;;10401834;28;20210;-80
2023/01/17 10:00:37;;;;;;;20.73;6.40;;;;;2.70;98306.00;;;;10417528;28;20199;-79
2023/01/17 10:05:57;;;;;;;17.33;6.13;;;;;2.80;98301.00;;;;10414276;28;20202;-79
2023/01/17 10:10:59;;;;;;;13.30;7.33;;;;;2.80;98312.00;;;;10417451;28;20788;-79
2023/01/17 10:16:36;;;;;;;16.40;7.43;;;;;2.90;98305.00;;;;10404327;28;20764;-79
2023/01/17 10:22:19;;;;;;;26.57;10.37;;;;;3.40;98309.00;;;;10408737;28;20183;-79
2023/01/17 10:27:36;;;;;;;16.27;6.43;;;;;3.80;98303.00;;;;10364566;28;20206;-79
2023/01/17 10:32:43;;;;;;;13.23;6.93;;;;;3.90;98298.00;;;;10416236;28;20644;-80
2023/01/17 10:37:47;;;;;;;22.77;8.10;;;;;4.10;98294.00;;;;10375418;28;20207;-79
2023/01/17 10:42:56;;;;;;;15.90;8.33;;;;;4.40;98283.00;;;;10375681;28;20273;-80
2023/01/17 10:48:32;;;;;;;17.07;8.20;;;;;4.40;98285.00;;;;10439372;28;20603;-79
2023/01/17 10:53:48;;;;;;;17.53;7.87;;;;;5.10;98272.00;;;;10425280;28;20194;-80
2023/01/17 10:59:04;;;;;;;13.47;6.33;;;;;4.50;98262.00;;;;10441257;28;20250;-79
2023/01/17 11:04:19;;;;;;;11.23;7.23;;;;;4.20;98256.00;;;;10452864;28;20193;-79
2023/01/17 11:09:36;;;;;;;13.13;6.37;;;;;4.60;98245.00;;;;10439779;28;20200;-79
2023/01/17 11:14:39;;;;;;;10.10;5.57;;;;;5.00;98236.00;;;;10422369;28;20225;-80
2023/01/17 11:19:44;;;;;;;9.90;3.90;;;;;5.40;98239.00;;;;10397821;28;20198;-80
2023/01/17 11:24:50;;;;;;;7.40;4.03;;;;;5.60;98242.00;;;;10381663;28;20249;-80
2023/01/17 11:30:14;;;;;;;7.77;2.13;;;;;5.70;98238.00;;;;10365816;28;20245;-80
2023/01/17 11:35:20;;;;;;;5.60;1.83;;;;;5.70;98241.00;;;;10419979;28;20317;-80
2023/01/17 11:40:27;;;;;;;2.37;1.67;;;;;5.90;98240.00;;;;10405792;28;20194;-80
2023/01/17 11:45:32;;;;;;;4.33;2.27;;;;;6.00;98233.00;;;;10416447;28;20199;-80
2023/01/17 11:50:37;;;;;;;5.57;2.60;;;;;6.10;98234.00;;;;10405993;28;20201;-80
2023/01/17 11:55:52;;;;;;;7.63;2.60;;;;;6.10;98237.00;;;;10389171;28;20302;-80
2023/01/17 12:01:00;;;;;;;4.40;2.70;;;;;6.30;98233.00;;;;10400177;28;20225;-81
2023/01/17 12:06:35;;;;;;;7.40;2.70;;;;;6.50;98231.00;;;;10437591;28;20649;-80
2023/01/17 12:18:00;;;;;;;13.03;2.80;;;;;7.50;98236.00;;;;10421059;28;20225;-80
2023/01/17 12:23:14;;;;;;;5.47;2.13;;;;;7.80;98228.00;;;;10420323;28;20170;-81
2023/01/17 12:28:45;;;;;;;4.80;2.27;;;;;8.10;98228.00;;;;10410455;28;20268;-80
2023/01/17 12:34:07;;;;;;;5.50;2.23;;;;;8.30;98231.00;;;;10402929;28;20289;-80
2023/01/17 12:39:13;;;;;;;7.33;2.47;;;;;8.00;98231.00;;;;10403079;28;20174;-80
2023/01/17 12:44:18;;;;;;;6.47;1.10;;;;;7.50;98233.00;;;;10403180;28;20206;-80
2023/01/17 12:49:40;;;;;;;7.07;1.40;;;;;7.30;98226.00;;;;10419089;28;20222;-80
2023/01/17 12:54:46;;;;;;;6.13;2.20;;;;;7.10;98212.00;;;;10393692;28;20561;-80
2023/01/17 13:00:05;;;;;;;8.63;2.90;;;;;7.00;98211.00;;;;10378446;28;20190;-80
2023/01/17 13:05:17;;;;;;;4.77;2.37;;;;;7.00;98200.00;;;;10394281;28;20273;-80
2023/01/17 13:10:30;;;;;;;7.73;2.70;;;;;6.70;98201.00;;;;10361473;28;20712;-80
2023/01/17 13:15:37;;;;;;;6.43;2.27;;;;;6.90;98197.00;;;;10377436;28;20222;-80
2023/01/17 13:21:04;;;;;;;6.00;2.30;;;;;7.20;98192.00;;;;10393856;28;20236;-80
2023/01/17 13:26:32;;;;;;;6.50;1.87;;;;;7.30;98203.00;;;;10392365;28;20248;-79
2023/01/17 13:31:47;;;;;;;6.60;2.07;;;;;6.90;98202.00;;;;10401181;28;20221;-80
2023/01/17 13:37:08;;;;;;;3.87;2.17;;;;;6.70;98208.00;;;;10416908;28;20209;-80
2023/01/17 13:42:37;;;;;;;6.20;2.20;;;;;6.50;98209.00;;;;10392375;28;20635;-80
2023/01/17 13:47:40;;;;;;;5.23;2.03;;;;;6.30;98211.00;;;;10397832;28;20191;-80
2023/01/17 13:52:42;;;;;;;4.83;1.80;;;;;6.00;98199.00;;;;10391739;28;20262;-79
2023/01/17 13:57:45;;;;;;;2.17;1.70;;;;;5.90;98199.00;;;;10392037;28;20250;-79
2023/01/17 14:02:49;;;;;;;7.73;2.20;;;;;5.80;98199.00;;;;10392095;28;20237;-80
2023/01/17 14:07:56;;;;;;;4.47;2.07;;;;;5.70;98204.00;;;;10415276;28;20196;-80
2023/01/17 14:12:58;;;;;;;5.63;2.00;;;;;5.80;98218.00;;;;10415968;28;20238;-80
2023/01/17 14:18:02;;;;;;;6.03;2.10;;;;;5.50;98231.00;;;;10406139;28;20240;-79
2023/01/17 14:23:22;;;;;;;6.10;2.23;;;;;5.40;98239.00;;;;10359019;28;20194;-79
2023/01/17 14:28:28;;;;;;;5.83;1.73;;;;;5.20;98245.00;;;;10359158;28;20256;-79
2023/01/17 14:33:35;;;;;;;6.27;1.90;;;;;5.00;98246.00;;;;10398691;28;20190;-78
2023/01/17 14:38:43;;;;;;;2.37;1.50;;;;;4.50;98247.00;;;;10420887;28;20745;-78
2023/01/17 14:43:47;;;;;;;4.60;1.57;;;;;4.20;98241.00;;;;10424386;28;20190;-78
2023/01/17 14:48:51;;;;;;;4.53;1.60;;;;;3.90;98246.00;;;;10374481;28;20218;-79
2023/01/17 14:53:58;;;;;;;6.00;1.77;;;;;3.70;98234.00;;;;10398464;28;20222;-79
2023/01/17 14:59:18;;;;;;;4.00;1.80;;;;;3.50;98241.00;;;;10365611;28;20642;-78
2023/01/17 15:04:28;;;;;;;6.97;1.80;;;;;3.30;98234.00;;;;10381489;28;20195;-78
2023/01/17 15:09:35;;;;;;;5.43;2.00;;;;;3.10;98238.00;;;;10381522;28;20769;-79
2023/01/17 15:14:42;;;;;;;6.60;1.27;;;;;2.90;98236.00;;;;10409404;28;20283;-79
2023/01/17 15:19:48;;;;;;;2.80;1.50;;;;;2.60;98242.00;;;;10422969;28;20198;-78
2023/01/17 15:24:52;;;;;;;7.03;2.13;;;;;2.40;98244.00;;;;10422384;28;20205;-79
2023/01/17 15:29:57;;;;;;;3.73;1.67;;;;;2.20;98258.00;;;;10423003;28;20221;-78
2023/01/17 15:35:01;;;;;;;8.67;1.50;;;;;1.90;98256.00;;;;10438829;28;20592;-78
2023/01/17 15:40:14;;;;;;;7.80;1.70;;;;;1.70;98254.00;;;;10421815;28;20256;-79
2023/01/17 15:45:21;;;;;;;1.83;1.33;;;;;1.50;98258.00;;;;10422083;28;20645;-78
2023/01/17 15:50:29;;;;;;;2.37;1.57;;;;;1.30;98263.00;;;;10420937;28;20665;-79
2023/01/17 15:55:34;;;;;;;5.83;1.90;;;;;1.10;98263.00;;;;10421207;28;20309;-78
2023/01/17 16:00:45;;;;;;;7.07;2.30;;;;;0.90;98268.00;;;;10421503;28;20620;-78
2023/01/17 16:05:49;;;;;;;6.70;3.07;;;;;0.70;98270.00;;;;10437189;28;20703;-78
2023/01/17 16:11:05;;;;;;;10.53;3.93;;;;;0.60;98270.00;;;;10420829;28;20611;-79
2023/01/17 16:16:17;;;;;;;6.73;3.77;;;;;0.40;98268.00;;;;10421426;28;20618;-78
2023/01/17 16:21:25;;;;;;;7.30;3.50;;;;;0.20;98273.00;;;;10420568;28;20183;-78
2023/01/17 16:26:27;;;;;;;7.63;3.93;;;;;0.00;98270.00;;;;10419874;28;20194;-78
2023/01/17 16:31:30;;;;;;;8.77;4.03;;;;;-0.10;98278.00;;;;10419945;28;20182;-78
2023/01/17 16:36:33;;;;;;;13.07;5.37;;;;;-0.20;98274.00;;;;10417905;28;20290;-79
2023/01/17 16:41:35;;;;;;;12.10;5.23;;;;;-0.30;98285.00;;;;10394417;28;20191;-78
2023/01/17 16:46:37;;;;;;;14.07;6.30;;;;;-0.30;98292.00;;;;10407372;28;20776;-79
2023/01/17 16:51:39;;;;;;;6.47;3.27;;;;;-0.40;98297.00;;;;10386565;28;20186;-78
2023/01/17 16:56:42;;;;;;;12.33;5.20;;;;;-0.50;98311.00;;;;10419049;28;20252;-78
2023/01/17 17:01:48;;;;;;;10.13;4.93;;;;;-0.60;98306.00;;;;10402624;28;20194;-79
2023/01/17 17:06:49;;;;;;;11.37;5.57;;;;;-0.70;98319.00;;;;10418999;28;20530;-79
2023/01/17 17:11:51;;;;;;;13.47;6.47;;;;;-0.70;98317.00;;;;10420014;28;20206;-79
2023/01/17 17:16:53;;;;;;;14.43;5.00;;;;;-0.80;98316.00;;;;10408428;28;20270;-78
2023/01/17 17:22:05;;;;;;;11.10;6.03;;;;;-0.90;98334.00;;;;10435819;28;20226;-79
2023/01/17 17:27:07;;;;;;;16.70;8.43;;;;;-0.90;98328.00;;;;10401810;28;20494;-79
2023/01/17 17:32:10;;;;;;;14.63;8.23;;;;;-1.00;98335.00;;;;10416138;28;20534;-78
2023/01/17 17:37:14;;;;;;;11.23;6.10;;;;;-1.00;98353.00;;;;10417505;28;20206;-79
2023/01/17 17:42:19;;;;;;;14.30;6.70;;;;;-1.00;98347.00;;;;10417644;28;20194;-78
2023/01/17 17:47:22;;;;;;;15.03;8.87;;;;;-1.10;98354.00;;;;10417816;28;20225;-79
2023/01/17 17:52:24;;;;;;;12.43;6.80;;;;;-1.10;98364.00;;;;10434644;28;20280;-79
2023/01/17 17:57:26;;;;;;;18.23;7.33;;;;;-1.20;98363.00;;;;10401976;28;20200;-79
2023/01/17 18:02:28;;;;;;;14.80;7.30;;;;;-1.20;98372.00;;;;10434519;28;20182;-78
2023/01/17 18:07:33;;;;;;;16.67;8.53;;;;;-1.30;98387.00;;;;10416912;28;20190;-78
2023/01/17 18:12:35;;;;;;;11.00;6.97;;;;;-1.30;98387.00;;;;10404503;28;20218;-79
2023/01/17 18:17:37;;;;;;;15.57;7.67;;;;;-1.30;98405.00;;;;10404259;28;20636;-78
2023/01/17 18:22:39;;;;;;;12.60;6.60;;;;;-1.40;98402.00;;;;10401459;28;20198;-78
2023/01/17 18:27:43;;;;;;;12.10;6.93;;;;;-1.40;98408.00;;;;10384989;28;20203;-78
2023/01/17 18:32:48;;;;;;;10.80;7.70;;;;;-1.40;98420.00;;;;10416951;28;20190;-78
2023/01/17 18:37:51;;;;;;;14.03;7.67;;;;;-1.40;98424.00;;;;10441468;28;20673;-79
2023/01/17 18:43:00;;;;;;;12.80;7.43;;;;;-1.50;98438.00;;;;10442032;28;20199;-79
2023/01/17 18:48:03;;;;;;;12.80;7.50;;;;;-1.50;98436.00;;;;10409479;28;20256;-79
2023/01/17 18:53:05;;;;;;;15.07;7.93;;;;;-1.50;98446.00;;;;10409682;28;20202;-79
2023/01/17 18:58:08;;;;;;;14.07;7.30;;;;;-1.50;98449.00;;;;10408294;28;20210;-78
2023/01/17 19:03:09;;;;;;;14.93;7.53;;;;;-1.50;98454.00;;;;10441690;28;20193;-79
2023/01/17 19:08:11;;;;;;;14.30;6.47;;;;;-1.50;98460.00;;;;10391777;28;20221;-78
2023/01/17 19:13:13;;;;;;;13.00;6.67;;;;;-1.50;98466.00;;;;10417001;28;20219;-79
2023/01/17 19:18:16;;;;;;;13.13;6.30;;;;;-1.40;98478.00;;;;10424239;28;20277;-78
2023/01/17 19:23:17;;;;;;;13.27;6.40;;;;;-1.40;98473.00;;;;10439109;28;20187;-79
2023/01/17 19:28:20;;;;;;;10.73;6.70;;;;;-1.40;98478.00;;;;10407150;28;20206;-78
2023/01/17 19:33:22;;;;;;;16.30;8.27;;;;;-1.30;98481.00;;;;10406721;28;20194;-78
2023/01/17 19:38:26;;;;;;;16.80;7.17;;;;;-1.20;98487.00;;;;10423090;28;20248;-79
2023/01/17 19:43:28;;;;;;;19.10;7.27;;;;;-1.20;98490.00;;;;10422834;28;20680;-79
2023/01/17 19:48:33;;;;;;;13.77;7.50;;;;;-1.30;98488.00;;;;10423207;28;20261;-78
2023/01/17 19:53:36;;;;;;;17.90;8.97;;;;;-1.30;98484.00;;;;10391175;28;20564;-79
2023/01/17 19:58:39;;;;;;;21.80;12.67;;;;;-1.30;98488.00;;;;10390736;28;20218;-78
2023/01/17 20:03:47;;;;;;;100.70;42.13;;;;;-1.30;98486.00;;;;10442112;28;20679;-78
2023/01/17 20:08:49;;;;;;;19.23;11.63;;;;;-1.40;98491.00;;;;10420503;28;20197;-79
2023/01/17 20:13:55;;;;;;;16.47;9.67;;;;;-1.40;98491.00;;;;10438839;28;20226;-79
2023/01/17 20:18:58;;;;;;;19.50;10.13;;;;;-1.50;98485.00;;;;10404793;28;20210;-79
2023/01/17 20:24:03;;;;;;;18.50;9.07;;;;;-1.50;98493.00;;;;10421947;28;20217;-78
2023/01/17 20:29:12;;;;;;;15.63;10.00;;;;;-1.50;98498.00;;;;10420118;28;20202;-79
2023/01/17 20:34:17;;;;;;;20.93;11.23;;;;;-1.50;98501.00;;;;10413160;28;20205;-79
2023/01/17 20:39:19;;;;;;;24.87;11.53;;;;;-1.50;98498.00;;;;10379246;28;20207;-79
2023/01/17 20:44:22;;;;;;;36.03;14.43;;;;;-1.50;98504.00;;;;10383603;28;20197;-78
2023/01/17 20:49:24;;;;;;;34.43;16.23;;;;;-1.60;98509.00;;;;10419659;28;20199;-79
2023/01/17 20:54:26;;;;;;;45.90;20.00;;;;;-1.60;98501.00;;;;10378661;28;20198;-78
2023/01/17 20:59:28;;;;;;;41.30;18.33;;;;;-1.60;98507.00;;;;10378867;28;20211;-78
2023/01/17 21:04:30;;;;;;;49.20;18.87;;;;;-1.60;98513.00;;;;10378569;28;20183;-78
2023/01/17 21:09:32;;;;;;;67.10;26.57;;;;;-1.60;98512.00;;;;10411373;28;20187;-78
2023/01/17 21:14:36;;;;;;;59.03;26.10;;;;;-1.70;98500.00;;;;10406555;28;20242;-79
2023/01/17 21:19:45;;;;;;;51.10;21.80;;;;;-1.70;98517.00;;;;10397449;28;20207;-79
2023/01/17 21:24:47;;;;;;;48.63;21.47;;;;;-1.70;98518.00;;;;10394183;28;20202;-78
2023/01/17 21:29:51;;;;;;;38.67;16.90;;;;;-1.70;98526.00;;;;10378363;28;20195;-78
2023/01/17 21:34:54;;;;;;;29.83;13.40;;;;;-1.80;98529.00;;;;10428759;28;20198;-79
2023/01/17 21:39:56;;;;;;;21.93;11.97;;;;;-1.80;98531.00;;;;10417870;28;20297;-78
2023/01/17 21:44:58;;;;;;;21.53;10.53;;;;;-1.80;98537.00;;;;10443240;28;20800;-79
2023/01/17 21:50:03;;;;;;;22.40;11.27;;;;;-1.90;98539.00;;;;10393009;28;20267;-79
2023/01/17 22:00:25;;;;;;;16.43;9.27;;;;;-1.90;98560.00;;;;10392378;28;20535;-79
2023/01/17 22:05:29;;;;;;;20.23;8.23;;;;;-1.80;98559.00;;;;10388005;28;20203;-79
2023/01/17 22:10:43;;;;;;;17.93;7.70;;;;;-1.70;98553.00;;;;10375943;28;20933;-78
2023/01/17 22:15:56;;;;;;;18.90;8.30;;;;;-1.60;98560.00;;;;10418715;28;20714;-79
2023/01/17 22:21:06;;;;;;;13.77;7.70;;;;;-1.60;98560.00;;;;10441668;28;20193;-79
2023/01/17 22:26:11;;;;;;;16.43;7.90;;;;;-1.50;98570.00;;;;10457678;28;20206;-79
2023/01/17 22:31:15;;;;;;;12.20;7.43;;;;;-1.60;98575.00;;;;10435772;28;20270;-79
2023/01/17 22:36:18;;;;;;;12.47;8.17;;;;;-1.70;98569.00;;;;10391946;28;20230;-79
2023/01/17 22:41:23;;;;;;;25.83;11.53;;;;;-1.70;98570.00;;;;10379763;28;20202;-78
2023/01/17 22:46:29;;;;;;;21.57;11.57;;;;;-1.70;98573.00;;;;10387047;28;20252;-78
2023/01/17 22:51:31;;;;;;;24.17;11.07;;;;;-1.80;98576.00;;;;10391953;28;20214;-78
2023/01/17 22:56:33;;;;;;;20.33;10.77;;;;;-1.80;98578.00;;;;10358951;28;20292;-79
2023/01/17 23:01:36;;;;;;;22.33;10.40;;;;;-1.90;98577.00;;;;10394977;28;20282;-78
2023/01/17 23:06:41;;;;;;;19.27;10.60;;;;;-1.80;98581.00;;;;10401440;28;20199;-79
2023/01/17 23:11:48;;;;;;;16.80;9.57;;;;;-1.80;98581.00;;;;10414119;28;20219;-79
2023/01/17 23:22:18;;;;;;;19.30;9.03;;;;;-1.70;98571.00;;;;10474488;28;20186;-79
2023/01/17 23:33:02;;;;;;;19.83;10.17;;;;;-1.80;98579.00;;;;10422731;28;20253;-79
2023/01/17 23:43:24;;;;;;;22.17;11.13;;;;;-1.80;98574.00;;;;10421713;28;20202;-79
2023/01/17 23:48:27;;;;;;;20.80;9.80;;;;;-1.80;98570.00;;;;10390012;28;20229;-79
2023/01/17 23:53:29;;;;;;;22.87;11.57;;;;;-1.70;98579.00;;;;10420387;28;20292;-79
2023/01/17 23:58:31;;;;;;;22.40;11.30;;;;;-1.50;98575.00;;;;10438077;28;20206;-79
